Airfield :
LOGIN :

Register | Disclaimer

   EN    FR    IT 

 










Legend :    VFR   Marginal VFR   IFR   Intensive IFR   Very Intensive IFR
Visi :
Ceiling :
>= 8 km
>= 3000ft
5 to 8 km
1000 to 3000 ft
1500m to 5 km
500 to 1000 ft
800 to 1500m
200 to 500 ft
< 800m
< 200 ft
Symbols :   Thunderstorms  Fog  Heavy snow  Heavy precipitations  Wind > 20 kt
SIGMETs :     Misc.  Thunderstorms  Icing  Turbulence  Mountain Waves  Volcanic Ashes







- Airport Elevation : 376 ft


LHKE - Kecskemét

CURRENT METAR :
  • 121515Z 30004KT CAVOK 11/06 Q1012 NOSIG RMK BLU

EXPIRED METARs :
  • 121445Z 30004KT 9999 FEW040 BKN060 10/06 Q1011 NOSIG RMK BLU
  • 121415Z 29004KT 9999 FEW040 BKN060 11/06 Q1011 NOSIG RMK BLU
  • 121345Z 30006KT CAVOK 11/06 Q1010 NOSIG RMK BLU
  • 121315Z 31010KT CAVOK 12/06 Q1010 NOSIG RMK BLU
  • 121253Z 29012G23KT 200V330 CAVOK 15/06 Q1009 NOSIG RMK BLU
  • 121245Z 22012KT CAVOK 16/07 Q1008 NOSIG RMK BLU

TAF TAF LHKE
Valid from the 12 at 15:00 until the 13 at 00:00 UTC


121415Z 1215/1224 30008KT CAVOK
BECMG 1215/1217 9999 SCT033 BKN060 OVC200
TEMPO 1217/1224 6000 -RA SCT020 BKN030 OVC070
TEMPO 1220/1224 30010G20KT
No reported NOTAMs for that airfield.



MET'MAP, your aeronautical weather chart ! - Copyright ORBIFLY December 2007 - Disclaimer

ORBIFLY MET'MAP TEAM :

Programming & Development : Alexandra Zaïnal
Concept & Development : Baudouin d'Aumeries
Co-Development & Prog : Marc-Olivier Méhu
Technical & hardware support : Manuel Goepfert

Contact : metmap@orbifly.com




SOURCES & CREDITS :

   NOAA